createdAt,value
2023-04-13T00:11:21.069Z,96936.13
2023-04-13T00:31:25.236Z,96930.78
2023-04-13T00:51:28.258Z,96935.47
2023-04-13T01:11:31.633Z,96921.91
2023-04-13T01:31:34.644Z,96910.25
2023-04-13T01:51:38.567Z,96923.53
2023-04-13T02:11:41.353Z,96937.66
2023-04-13T02:31:45.430Z,96930.19
2023-04-13T02:51:49.099Z,96919.75
2023-04-13T03:11:52.085Z,96893.38
2023-04-13T03:31:54.850Z,96904.00
2023-04-13T03:51:57.846Z,96899.63
2023-04-13T04:12:00.690Z,96899.94
2023-04-13T04:32:03.636Z,96900.34
2023-04-13T04:52:06.435Z,96926.47
2023-04-13T05:12:09.296Z,96922.50
2023-04-13T05:32:12.347Z,96911.56
2023-04-13T05:52:15.162Z,96929.06
2023-04-13T06:12:19.623Z,96921.59
2023-04-13T06:32:22.456Z,96930.69
2023-04-13T06:52:25.233Z,96953.31
2023-04-13T07:12:27.855Z,96952.47
2023-04-13T07:32:31.446Z,96942.66
2023-04-13T07:52:34.477Z,96945.13
2023-04-13T08:12:37.120Z,96930.63
2023-04-13T08:32:39.826Z,96948.88
2023-04-13T08:52:42.671Z,96943.78
2023-04-13T09:12:45.365Z,96935.50
2023-04-13T09:32:48.064Z,96942.19
2023-04-13T09:52:50.744Z,96949.00
2023-04-13T10:12:53.424Z,96951.94
2023-04-13T10:32:56.203Z,96933.59
2023-04-13T10:52:59.367Z,96925.91
2023-04-13T11:13:02.186Z,96898.91
2023-04-13T11:33:04.918Z,96921.56
2023-04-13T11:53:08.704Z,96914.31
2023-04-13T12:33:18.113Z,96882.72
2023-04-13T12:53:20.731Z,96890.25
2023-04-13T13:13:23.431Z,96908.25
2023-04-13T13:33:26.194Z,96899.84
2023-04-13T13:53:30.150Z,96904.91
2023-04-13T14:13:33.393Z,96918.12
2023-04-13T14:33:36.046Z,96941.62
2023-04-13T14:53:38.707Z,96965.66
2023-04-13T15:13:41.429Z,96976.19
2023-04-13T15:33:44.361Z,97005.69
2023-04-13T15:53:47.084Z,97024.22
2023-04-13T16:13:50.430Z,97048.12
2023-04-13T16:33:53.504Z,97058.06
2023-04-13T16:53:57.909Z,97088.09
2023-04-13T17:14:00.678Z,97113.06
2023-04-13T17:34:03.294Z,97144.06
2023-04-13T17:54:09.118Z,97159.06
2023-04-13T18:14:13.397Z,97187.03
2023-04-13T18:34:16.245Z,97191.94
2023-04-13T18:54:19.018Z,97214.78
2023-04-13T19:14:21.761Z,97207.97
2023-04-13T19:34:26.958Z,97209.88
2023-04-13T19:54:29.617Z,97219.81
2023-04-13T20:14:32.282Z,97217.09
2023-04-13T20:34:36.376Z,97210.41
2023-04-13T20:54:39.804Z,97208.88
2023-04-13T21:14:42.527Z,97205.28
2023-04-13T21:34:45.373Z,97198.63
2023-04-13T21:54:49.189Z,97197.38
2023-04-13T22:14:53.628Z,97182.25
2023-04-13T22:34:59.394Z,97187.94
2023-04-13T22:55:02.284Z,97184.53
2023-04-13T23:15:05.014Z,97172.44
2023-04-13T23:35:07.722Z,97132.84
2023-04-13T23:55:10.359Z,97131.22
